createdAt,value
2022-11-04T00:01:42.630Z,5.53
2022-11-04T00:04:28.791Z,6.13
2022-11-04T00:07:32.733Z,6.35
2022-11-04T00:10:38.125Z,6.18
2022-11-04T00:13:23.267Z,5.32
2022-11-04T00:16:28.365Z,4.88
2022-11-04T00:19:13.964Z,5.00
2022-11-04T00:22:17.952Z,4.50
2022-11-04T00:25:22.150Z,6.00
2022-11-04T00:28:35.649Z,5.43
2022-11-04T00:31:39.040Z,6.13
2022-11-04T00:34:24.472Z,6.32
2022-11-04T00:37:09.908Z,7.15
2022-11-04T00:39:55.638Z,6.80
2022-11-04T00:42:43.821Z,6.45
2022-11-04T00:45:29.519Z,6.88
2022-11-04T00:48:15.508Z,6.95
2022-11-04T00:51:01.231Z,7.03
2022-11-04T00:53:46.766Z,6.57
2022-11-04T00:56:32.275Z,7.38
2022-11-04T00:59:17.676Z,8.52
2022-11-04T01:02:03.177Z,6.85
2022-11-04T01:04:48.657Z,7.63
2022-11-04T01:07:34.561Z,6.65
2022-11-04T01:10:21.707Z,6.85
2022-11-04T01:13:07.457Z,6.80
2022-11-04T01:15:53.168Z,6.78
2022-11-04T01:18:39.391Z,6.15
2022-11-04T01:21:25.095Z,6.38
2022-11-04T01:24:10.467Z,7.18
2022-11-04T01:26:55.966Z,6.95
2022-11-04T01:29:41.491Z,4.45
2022-11-04T01:32:28.326Z,4.05
2022-11-04T01:35:13.655Z,4.43
2022-11-04T01:37:59.447Z,4.07
2022-11-04T01:40:44.735Z,3.72
2022-11-04T01:43:50.596Z,3.10
2022-11-04T01:46:47.164Z,3.75
2022-11-04T01:49:43.340Z,4.28
2022-11-04T01:52:43.572Z,4.25
2022-11-04T01:55:35.278Z,5.40
2022-11-04T01:58:24.541Z,4.85
2022-11-04T02:01:11.420Z,4.78
2022-11-04T02:04:18.598Z,4.45
2022-11-04T02:07:07.098Z,3.70
2022-11-04T02:09:53.117Z,3.30
2022-11-04T02:12:50.458Z,3.03
2022-11-04T02:15:44.789Z,2.95
2022-11-04T02:18:40.345Z,2.78
2022-11-04T02:21:43.933Z,2.25
2022-11-04T02:25:07.181Z,1.80
2022-11-04T02:28:20.821Z,1.70
2022-11-04T02:31:41.918Z,1.98
2022-11-04T02:34:30.337Z,2.80
2022-11-04T02:37:24.472Z,2.10
2022-11-04T02:40:18.680Z,2.38
2022-11-04T02:43:27.205Z,2.08
2022-11-04T02:46:25.629Z,2.55
2022-11-04T02:49:15.871Z,2.38
2022-11-04T02:52:08.336Z,1.88
2022-11-04T02:55:11.851Z,2.50
2022-11-04T02:58:00.577Z,3.35
2022-11-04T03:00:47.860Z,4.35
2022-11-04T03:03:39.747Z,7.15
2022-11-04T03:06:26.572Z,8.30
2022-11-04T03:09:15.318Z,9.90
2022-11-04T03:12:06.864Z,9.98
2022-11-04T03:15:02.219Z,11.20
2022-11-04T03:18:16.563Z,11.85
2022-11-04T03:21:04.817Z,12.32
2022-11-04T03:23:50.187Z,13.23
2022-11-04T03:26:44.798Z,12.88
2022-11-04T03:30:11.947Z,12.57
2022-11-04T03:33:16.324Z,11.73
2022-11-04T03:36:03.115Z,11.65
2022-11-04T03:38:49.237Z,11.50
2022-11-04T03:41:47.388Z,12.13
2022-11-04T03:44:33.324Z,12.00
2022-11-04T03:47:20.805Z,12.07
2022-11-04T03:50:26.055Z,11.48
2022-11-04T03:53:13.644Z,11.07
2022-11-04T03:56:20.547Z,9.93
2022-11-04T03:59:24.427Z,9.77
2022-11-04T04:02:18.970Z,8.60
2022-11-04T04:05:19.354Z,8.85
2022-11-04T04:08:13.513Z,8.95
2022-11-04T04:11:19.788Z,7.82
2022-11-04T04:14:12.887Z,8.65
2022-11-04T04:17:00.302Z,7.30
2022-11-04T04:19:53.230Z,6.95
2022-11-04T04:22:45.950Z,6.80
2022-11-04T04:25:51.633Z,6.65
2022-11-04T04:28:38.510Z,6.75
2022-11-04T04:31:44.375Z,6.22
2022-11-04T04:34:32.523Z,5.30
2022-11-04T04:37:19.932Z,6.05
2022-11-04T04:40:27.593Z,5.82
2022-11-04T04:43:34.933Z,4.80
2022-11-04T04:46:20.610Z,6.10
2022-11-04T04:49:09.697Z,5.63
2022-11-04T04:51:54.799Z,4.90
2022-11-04T04:54:40.331Z,5.40
2022-11-04T04:57:25.873Z,6.55
2022-11-04T05:00:17.595Z,5.80
2022-11-04T05:03:03.051Z,7.47
2022-11-04T05:05:48.523Z,7.45
2022-11-04T05:08:35.333Z,6.43
2022-11-04T05:11:24.436Z,7.20
2022-11-04T05:14:12.427Z,8.65
2022-11-04T05:16:58.098Z,8.65
2022-11-04T05:19:43.581Z,8.30
2022-11-04T05:22:29.019Z,7.72
2022-11-04T05:25:14.718Z,9.05
2022-11-04T05:28:01.515Z,8.88
2022-11-04T05:30:47.069Z,8.65
2022-11-04T05:33:32.852Z,10.77
2022-11-04T05:36:18.159Z,10.77
2022-11-04T05:39:04.219Z,10.93
2022-11-04T05:41:49.324Z,11.07
2022-11-04T05:44:34.789Z,12.55
2022-11-04T05:47:20.357Z,10.98
2022-11-04T05:50:06.940Z,13.82
2022-11-04T05:52:52.519Z,13.52
2022-11-04T05:55:38.170Z,14.70
2022-11-04T05:58:23.650Z,14.20
2022-11-04T06:01:30.410Z,13.25
2022-11-04T06:04:19.221Z,14.35
2022-11-04T06:07:05.614Z,13.70
2022-11-04T06:09:51.271Z,15.20
2022-11-04T06:12:36.878Z,13.95
2022-11-04T06:15:22.427Z,14.00
2022-11-04T06:18:08.390Z,13.93
2022-11-04T06:21:30.246Z,14.07
2022-11-04T06:24:15.838Z,13.07
2022-11-04T06:27:00.984Z,13.00
2022-11-04T06:29:47.272Z,14.18
2022-11-04T06:32:33.104Z,12.63
2022-11-04T06:35:18.577Z,13.02
2022-11-04T06:38:03.746Z,13.10
2022-11-04T06:40:49.360Z,12.13
2022-11-04T06:43:34.940Z,12.43
2022-11-04T06:46:28.115Z,9.90
2022-11-04T06:49:17.659Z,10.13
2022-11-04T06:52:03.045Z,13.02
2022-11-04T06:54:48.754Z,11.25
2022-11-04T06:57:34.871Z,10.93
2022-11-04T07:00:20.181Z,11.85
2022-11-04T07:03:06.030Z,11.65
2022-11-04T07:05:51.912Z,9.40
2022-11-04T07:08:37.662Z,10.80
2022-11-04T07:11:25.057Z,10.77
2022-11-04T07:14:11.038Z,12.02
2022-11-04T07:16:56.671Z,10.20
2022-11-04T07:19:42.492Z,10.25
2022-11-04T07:22:27.999Z,10.57
2022-11-04T07:25:13.508Z,10.10
2022-11-04T07:28:02.303Z,10.73
2022-11-04T07:30:48.221Z,10.35
2022-11-04T07:33:34.101Z,10.30
2022-11-04T07:36:19.840Z,10.90
2022-11-04T07:39:06.718Z,11.38
2022-11-04T07:41:56.801Z,12.05
2022-11-04T07:44:44.731Z,10.57
2022-11-04T07:47:30.970Z,11.43
2022-11-04T07:50:16.411Z,10.82
2022-11-04T07:53:09.775Z,10.98
2022-11-04T07:56:00.800Z,11.63
2022-11-04T07:58:46.593Z,10.05
2022-11-04T08:01:32.038Z,11.23
2022-11-04T08:04:17.833Z,10.70
2022-11-04T08:07:03.670Z,9.98
2022-11-04T08:09:49.270Z,10.40
2022-11-04T08:12:35.037Z,10.95
2022-11-04T08:15:20.330Z,10.50
2022-11-04T08:18:06.154Z,9.93
2022-11-04T08:20:51.961Z,9.55
2022-11-04T08:23:37.337Z,8.57
2022-11-04T08:26:23.781Z,7.78
2022-11-04T08:29:09.403Z,8.07
2022-11-04T08:31:54.959Z,7.70
2022-11-04T08:34:40.264Z,7.80
2022-11-04T08:37:26.011Z,7.72
2022-11-04T08:40:11.584Z,7.15
2022-11-04T08:42:57.196Z,6.30
2022-11-04T08:45:46.163Z,4.93
2022-11-04T08:48:31.498Z,5.30
2022-11-04T08:51:20.634Z,5.82
2022-11-04T08:54:06.083Z,5.43
2022-11-04T08:56:51.553Z,4.75
2022-11-04T08:59:37.034Z,4.63
2022-11-04T09:02:22.375Z,4.35
2022-11-04T09:05:09.401Z,3.83
2022-11-04T09:07:55.519Z,3.40
2022-11-04T09:10:42.834Z,3.25
2022-11-04T09:13:28.396Z,3.63
2022-11-04T09:16:14.991Z,3.20
2022-11-04T09:19:00.730Z,3.60
2022-11-04T09:21:45.979Z,3.92
2022-11-04T09:24:32.066Z,4.05
2022-11-04T09:27:17.521Z,2.83
2022-11-04T09:30:03.447Z,2.80
2022-11-04T09:32:52.599Z,3.25
2022-11-04T09:35:38.358Z,3.08
2022-11-04T09:38:27.523Z,2.83
2022-11-04T09:41:37.762Z,3.50
2022-11-04T09:48:18.604Z,4.25
2022-11-04T09:51:06.694Z,3.00
2022-11-04T09:54:00.066Z,3.13
2022-11-04T09:56:49.766Z,3.35
2022-11-04T09:59:35.174Z,2.97
2022-11-04T10:02:57.733Z,2.72
2022-11-04T10:05:59.776Z,2.75
2022-11-04T10:08:58.703Z,3.25
2022-11-04T10:12:01.964Z,3.13
2022-11-04T10:18:18.582Z,3.08
2022-11-04T10:21:22.709Z,2.80
2022-11-04T10:24:24.211Z,2.80
2022-11-04T10:27:17.399Z,3.38
2022-11-04T10:30:21.813Z,2.78
2022-11-04T10:33:30.281Z,2.75
2022-11-04T10:36:17.342Z,2.50
2022-11-04T10:39:10.203Z,3.17
2022-11-04T10:41:55.997Z,2.22
2022-11-04T10:44:41.390Z,2.60
2022-11-04T10:47:39.391Z,3.70
2022-11-04T10:50:34.836Z,3.40
2022-11-04T10:53:32.580Z,2.83
2022-11-04T10:56:45.180Z,2.97
2022-11-04T10:59:45.394Z,3.50
2022-11-04T11:02:36.744Z,3.25
2022-11-04T11:05:24.744Z,3.67
2022-11-04T11:08:33.782Z,4.22
2022-11-04T11:11:40.465Z,3.92
2022-11-04T11:14:28.840Z,4.32
2022-11-04T11:17:36.376Z,3.70
2022-11-04T11:20:23.676Z,3.28
2022-11-04T11:23:36.262Z,3.67
2022-11-04T11:26:29.852Z,3.88
2022-11-04T11:29:26.624Z,3.60
2022-11-04T11:32:32.860Z,3.10
2022-11-04T11:35:21.568Z,3.60
2022-11-04T11:38:14.423Z,3.05
2022-11-04T11:44:19.626Z,3.33
2022-11-04T11:47:07.083Z,3.25
2022-11-04T11:50:04.585Z,3.85
2022-11-04T11:52:52.718Z,4.28
2022-11-04T11:55:39.125Z,4.53
2022-11-04T12:01:54.189Z,3.60
2022-11-04T12:11:42.624Z,2.88
2022-11-04T12:14:33.676Z,2.67
2022-11-04T12:17:20.605Z,3.22
2022-11-04T12:20:18.877Z,3.05
2022-11-04T12:23:26.475Z,2.72
2022-11-04T12:26:21.050Z,3.22
2022-11-04T12:29:12.732Z,3.35
2022-11-04T12:32:23.856Z,2.90
2022-11-04T12:35:27.515Z,2.47
2022-11-04T12:38:27.405Z,2.20
2022-11-04T12:41:58.837Z,2.25
2022-11-04T12:44:46.674Z,2.40
2022-11-04T12:47:42.981Z,2.50
2022-11-04T12:50:49.973Z,2.78
2022-11-04T12:53:47.523Z,2.20
2022-11-04T12:56:42.015Z,2.60
2022-11-04T13:00:06.428Z,2.30
2022-11-04T13:03:02.348Z,2.00
2022-11-04T13:05:53.952Z,2.15
2022-11-04T13:08:50.308Z,2.20
2022-11-04T13:11:55.001Z,1.85
2022-11-04T13:14:57.161Z,1.92
2022-11-04T13:17:45.684Z,2.10
2022-11-04T13:21:03.015Z,1.90
2022-11-04T13:24:05.925Z,1.88
2022-11-04T13:26:52.208Z,2.38
2022-11-04T13:29:39.903Z,2.45
2022-11-04T13:32:38.912Z,1.90
2022-11-04T13:35:40.126Z,1.30
2022-11-04T13:38:37.278Z,1.63
2022-11-04T13:41:44.850Z,1.80
2022-11-04T13:44:40.218Z,1.77
2022-11-04T13:47:32.507Z,1.20
2022-11-04T13:50:32.998Z,1.40
2022-11-04T13:53:18.294Z,1.42
2022-11-04T13:56:27.955Z,1.02
2022-11-04T13:59:29.139Z,1.25
2022-11-04T14:02:14.802Z,1.67
2022-11-04T14:05:37.062Z,1.95
2022-11-04T14:08:23.356Z,1.60
2022-11-04T14:11:10.654Z,1.85
2022-11-04T14:14:19.923Z,1.40
2022-11-04T14:17:25.508Z,1.27
2022-11-04T14:20:21.901Z,1.80
2022-11-04T14:23:23.501Z,1.60
2022-11-04T14:26:14.608Z,1.52
2022-11-04T14:29:08.394Z,1.80
2022-11-04T14:31:59.385Z,1.63
2022-11-04T14:34:45.323Z,1.63
2022-11-04T14:37:36.196Z,1.48
2022-11-04T14:40:46.840Z,1.60
2022-11-04T14:43:35.980Z,1.90
2022-11-04T14:46:25.520Z,1.33
2022-11-04T14:49:38.552Z,1.60
2022-11-04T14:52:49.998Z,0.90
2022-11-04T14:55:35.653Z,1.02
2022-11-04T14:58:24.702Z,1.40
2022-11-04T15:01:15.407Z,1.15
2022-11-04T15:04:13.509Z,0.80
2022-11-04T15:07:00.887Z,1.40
2022-11-04T15:09:50.391Z,1.05
2022-11-04T15:12:50.637Z,1.05
2022-11-04T15:15:44.686Z,1.50
2022-11-04T15:18:30.436Z,1.60
2022-11-04T15:21:16.251Z,1.58
2022-11-04T15:24:01.678Z,1.88
2022-11-04T15:26:54.937Z,1.88
2022-11-04T15:29:40.831Z,1.52
2022-11-04T15:32:27.059Z,1.42
2022-11-04T15:35:13.620Z,1.45
2022-11-04T15:38:01.666Z,1.45
2022-11-04T15:40:47.036Z,1.30
2022-11-04T15:43:33.255Z,1.40
2022-11-04T15:46:19.794Z,1.05
2022-11-04T15:49:06.848Z,1.30
2022-11-04T15:52:00.681Z,1.20
2022-11-04T15:54:48.619Z,2.25
2022-11-04T15:57:38.293Z,1.75
2022-11-04T16:00:25.075Z,1.25
2022-11-04T16:03:19.292Z,1.63
2022-11-04T16:06:07.456Z,1.67
2022-11-04T16:09:06.122Z,2.20
2022-11-04T16:12:06.467Z,1.90
2022-11-04T16:14:54.355Z,1.40
2022-11-04T16:17:44.826Z,1.40
2022-11-04T16:20:31.738Z,1.42
2022-11-04T16:23:23.113Z,2.30
2022-11-04T16:26:08.857Z,1.58
2022-11-04T16:28:57.219Z,1.65
2022-11-04T16:31:43.938Z,1.50
2022-11-04T16:34:29.877Z,2.22
2022-11-04T16:37:15.469Z,2.15
2022-11-04T16:40:01.166Z,1.80
2022-11-04T16:42:48.005Z,2.28
2022-11-04T16:45:36.308Z,1.80
2022-11-04T16:48:24.990Z,1.83
2022-11-04T16:51:23.498Z,1.88
2022-11-04T16:54:09.077Z,2.00
2022-11-04T16:56:56.491Z,2.08
2022-11-04T16:59:42.230Z,2.47
2022-11-04T17:02:34.926Z,1.90
2022-11-04T17:05:20.884Z,2.70
2022-11-04T17:08:09.186Z,2.30
2022-11-04T17:10:55.543Z,3.60
2022-11-04T17:13:41.188Z,3.30
2022-11-04T17:16:27.891Z,3.95
2022-11-04T17:19:16.449Z,5.07
2022-11-04T17:22:04.273Z,5.30
2022-11-04T17:24:49.479Z,5.32
2022-11-04T17:27:35.506Z,5.35
2022-11-04T17:30:22.526Z,7.60
2022-11-04T17:33:14.183Z,10.23
2022-11-04T17:36:04.728Z,8.85
2022-11-04T17:38:52.870Z,7.32
2022-11-04T17:41:56.888Z,6.72
2022-11-04T17:44:42.482Z,4.30
2022-11-04T17:47:27.817Z,3.53
2022-11-04T17:50:14.043Z,3.42
2022-11-04T17:52:59.410Z,3.28
2022-11-04T17:55:44.711Z,3.28
2022-11-04T17:58:30.564Z,3.22
2022-11-04T18:01:17.664Z,3.35
2022-11-04T18:04:04.508Z,4.95
2022-11-04T18:06:51.407Z,6.85
2022-11-04T18:09:39.143Z,7.50
2022-11-04T18:12:37.241Z,7.28
2022-11-04T18:15:22.569Z,6.13
2022-11-04T18:18:08.183Z,5.90
2022-11-04T18:21:03.183Z,6.15
2022-11-04T18:23:48.874Z,4.90
2022-11-04T18:26:34.302Z,4.18
2022-11-04T18:29:20.696Z,3.75
2022-11-04T18:32:06.517Z,3.28
2022-11-04T18:34:52.229Z,4.22
2022-11-04T18:37:38.445Z,4.30
2022-11-04T18:40:26.103Z,4.72
2022-11-04T18:43:12.182Z,6.20
2022-11-04T18:45:57.818Z,8.13
2022-11-04T18:48:47.139Z,7.97
2022-11-04T18:51:32.929Z,7.32
2022-11-04T18:54:19.771Z,6.88
2022-11-04T18:57:06.040Z,6.28
2022-11-04T18:59:51.540Z,6.18
2022-11-04T19:02:37.388Z,5.65
2022-11-04T19:05:23.273Z,5.00
2022-11-04T19:08:08.830Z,6.35
2022-11-04T19:11:00.997Z,6.03
2022-11-04T19:13:56.442Z,6.13
2022-11-04T19:16:43.419Z,6.07
2022-11-04T19:19:28.606Z,6.90
2022-11-04T19:22:14.632Z,7.38
2022-11-04T19:25:00.138Z,8.48
2022-11-04T19:27:45.765Z,10.88
2022-11-04T19:30:31.512Z,10.00
2022-11-04T19:33:16.766Z,11.80
2022-11-04T19:36:03.131Z,11.27
2022-11-04T19:38:51.583Z,11.80
2022-11-04T19:41:56.772Z,11.77
2022-11-04T19:44:42.431Z,22.45
2022-11-04T19:47:28.046Z,25.65
2022-11-04T19:50:13.709Z,27.00
2022-11-04T19:52:59.143Z,26.30
2022-11-04T19:55:52.668Z,24.80
2022-11-04T19:58:38.439Z,17.58
2022-11-04T20:01:23.963Z,13.43
2022-11-04T20:04:10.881Z,12.98
2022-11-04T20:06:56.647Z,12.50
2022-11-04T20:09:42.327Z,13.18
2022-11-04T20:12:46.343Z,11.10
2022-11-04T20:15:32.116Z,12.10
2022-11-04T20:18:18.018Z,13.00
2022-11-04T20:21:05.010Z,13.60
2022-11-04T20:23:54.722Z,13.90
2022-11-04T20:26:43.304Z,14.07
2022-11-04T20:29:28.800Z,14.07
2022-11-04T20:32:14.058Z,13.52
2022-11-04T20:34:59.986Z,14.05
2022-11-04T20:37:47.117Z,15.38
2022-11-04T20:40:33.233Z,15.85
2022-11-04T20:43:18.738Z,15.45
2022-11-04T20:46:13.512Z,14.68
2022-11-04T20:48:58.950Z,15.05
2022-11-04T20:51:50.075Z,17.33
2022-11-04T20:54:39.212Z,18.10
2022-11-04T20:57:24.627Z,17.10
2022-11-04T21:00:10.610Z,17.48
2022-11-04T21:02:56.680Z,18.15
2022-11-04T21:05:44.071Z,18.88
2022-11-04T21:08:33.321Z,19.15
2022-11-04T21:11:19.227Z,19.40
2022-11-04T21:14:06.619Z,19.42
2022-11-04T21:16:52.050Z,17.50
2022-11-04T21:19:37.535Z,17.08
2022-11-04T21:22:23.012Z,17.42
2022-11-04T21:25:08.950Z,23.55
2022-11-04T21:27:54.400Z,20.88
2022-11-04T21:30:42.287Z,21.17
2022-11-04T21:33:27.292Z,19.65
2022-11-04T21:36:13.561Z,19.45
2022-11-04T21:38:59.658Z,16.67
2022-11-04T21:41:45.979Z,14.85
2022-11-04T21:44:31.146Z,15.27
2022-11-04T21:47:17.533Z,14.65
2022-11-04T21:50:03.149Z,13.18
2022-11-04T21:52:51.476Z,13.25
2022-11-04T21:55:36.649Z,13.38
2022-11-04T21:58:22.335Z,14.38
2022-11-04T22:01:08.834Z,13.32
2022-11-04T22:04:00.219Z,12.50
2022-11-04T22:06:47.130Z,12.07
2022-11-04T22:09:32.438Z,11.70
2022-11-04T22:12:18.048Z,12.35
2022-11-04T22:15:07.119Z,11.48
2022-11-04T22:17:52.699Z,11.95
2022-11-04T22:20:38.825Z,12.18
2022-11-04T22:23:24.428Z,10.85
2022-11-04T22:26:16.073Z,11.70
2022-11-04T22:29:01.797Z,10.55
2022-11-04T22:31:47.437Z,11.40
2022-11-04T22:34:32.968Z,10.27
2022-11-04T22:37:19.121Z,11.80
2022-11-04T22:40:06.166Z,11.52
2022-11-04T22:42:52.438Z,11.27
2022-11-04T22:45:38.008Z,11.68
2022-11-04T22:48:24.133Z,11.75
2022-11-04T22:51:10.701Z,10.52
2022-11-04T22:54:01.430Z,10.57
2022-11-04T22:56:50.247Z,10.63
2022-11-04T22:59:35.732Z,10.20
2022-11-04T23:02:21.539Z,11.82
2022-11-04T23:05:07.616Z,11.13
2022-11-04T23:07:53.496Z,11.43
2022-11-04T23:10:57.423Z,11.25
2022-11-04T23:14:14.425Z,10.73
2022-11-04T23:17:40.133Z,11.13
2022-11-04T23:20:27.709Z,10.35
2022-11-04T23:23:31.205Z,10.27
2022-11-04T23:29:20.445Z,9.45
2022-11-04T23:35:09.637Z,10.57
2022-11-04T23:37:59.335Z,9.85
2022-11-04T23:41:06.911Z,9.45
2022-11-04T23:43:53.080Z,9.90
2022-11-04T23:46:56.708Z,8.75
2022-11-04T23:50:00.583Z,9.27
2022-11-04T23:53:04.587Z,10.52
2022-11-04T23:56:10.509Z,9.25
2022-11-04T23:59:14.615Z,9.80
